CheckWX is a tool to help pilots better visualize weather data.  It is not intended as a substitute for an official pre-flight weather briefing.

15:44:51 UTC

LIRG TAF
Guidonia Air Base
Guidonia, Italy
TAF LIRG 160800Z 1609/1618 VRB03KT CAVOK BECMG 1610/1612 26012KT 9999 SCT050 PROB40 TEMPO 1613/1617 5000 SHRA FEW025CB

Jul-16@
09:00 UTC

Jul-16 @ 09:00 UTC

Jul-16@
10:00 UTC

Jul-16 @ 10:00 UTC

TAF LIRG 160800Z 1609/1618 VRB03KT CAVOK

Expired

Wind
  • Variable at 3 KTS
Conditions
No significant weather
Cloud Levels
  • No significant clouds

Jul-16@
10:00 UTC

Jul-16 @ 10:00 UTC

Jul-16@
18:00 UTC

Jul-16 @ 18:00 UTC

BECMG 1610/1612 26012KT 9999 SCT050

Becoming

Becoming Conditions expected by Thu, Jul 16, 2020 @ 12:00 UTC

Wind
  • 260° at 12 KTS
Conditions
No significant weather
Cloud Levels
  • Scattered at 5,000' AGL

Jul-16@
13:00 UTC

Jul-16 @ 13:00 UTC

Jul-16@
17:00 UTC

Jul-16 @ 17:00 UTC

PROB40 TEMPO 1613/1617 5000 SHRA FEW025CB

Temporary - 40% Likelihood

Temporary - 40% Likelihood during this time.

Conditions
Showers, Rain
Cloud Levels
  • Few at 2,500' AGL